createdAt,value
2023-03-03T00:00:24.565Z,5.80
2023-03-03T00:01:24.583Z,5.50
2023-03-03T00:02:24.595Z,5.20
2023-03-03T00:03:24.582Z,5.20
2023-03-03T00:04:24.529Z,5.70
2023-03-03T00:05:24.538Z,5.20
2023-03-03T00:06:24.515Z,4.90
2023-03-03T00:07:24.506Z,4.90
2023-03-03T00:08:24.477Z,4.50
2023-03-03T00:09:24.519Z,4.60
2023-03-03T00:10:24.464Z,5.00
2023-03-03T00:11:24.482Z,5.50
2023-03-03T00:12:24.445Z,4.90
2023-03-03T00:13:24.449Z,4.90
2023-03-03T00:14:24.421Z,5.40
2023-03-03T00:15:24.448Z,5.60
2023-03-03T00:16:24.429Z,4.40
2023-03-03T00:17:24.432Z,4.80
2023-03-03T00:18:24.373Z,5.00
2023-03-03T00:19:24.459Z,4.40
2023-03-03T00:20:24.352Z,4.00
2023-03-03T00:21:24.371Z,4.00
2023-03-03T00:22:24.338Z,4.50
2023-03-03T00:23:24.338Z,4.90
2023-03-03T00:24:24.330Z,4.60
2023-03-03T00:25:24.327Z,4.70
2023-03-03T00:26:24.307Z,4.70
2023-03-03T00:27:24.316Z,5.00
2023-03-03T00:28:24.273Z,4.80
2023-03-03T00:29:24.306Z,4.90
2023-03-03T00:30:24.273Z,5.30
2023-03-03T00:31:24.341Z,4.40
2023-03-03T00:32:24.335Z,4.90
2023-03-03T00:33:24.250Z,5.40
2023-03-03T00:34:24.213Z,4.40
2023-03-03T00:35:24.288Z,4.60
2023-03-03T00:36:24.201Z,4.80
2023-03-03T00:37:24.208Z,3.90
2023-03-03T00:38:24.185Z,5.40
2023-03-03T00:39:24.217Z,5.20
2023-03-03T00:40:24.184Z,5.20
2023-03-03T00:41:24.210Z,4.80
2023-03-03T00:42:24.137Z,5.00
2023-03-03T00:43:24.149Z,4.40
2023-03-03T00:44:24.124Z,4.50
2023-03-03T00:45:24.141Z,4.70
2023-03-03T00:46:24.196Z,4.90
2023-03-03T00:47:24.108Z,4.90
2023-03-03T00:48:24.098Z,4.80
2023-03-03T00:49:24.074Z,4.40
2023-03-03T00:50:24.059Z,5.00
2023-03-03T00:51:24.072Z,5.00
2023-03-03T00:52:24.040Z,4.70
2023-03-03T00:53:24.055Z,5.30
2023-03-03T00:54:24.018Z,4.00
2023-03-03T00:55:24.034Z,4.90
2023-03-03T00:56:23.993Z,5.20
2023-03-03T00:57:24.005Z,4.40
2023-03-03T00:58:24.000Z,4.90
2023-03-03T00:59:23.981Z,5.20
2023-03-03T01:00:23.960Z,5.30
2023-03-03T01:01:23.987Z,4.90
2023-03-03T01:02:23.994Z,4.90
2023-03-03T01:03:23.938Z,4.60
2023-03-03T01:04:23.913Z,4.50
2023-03-03T01:05:23.920Z,4.40
2023-03-03T01:06:23.917Z,5.40
2023-03-03T01:07:23.911Z,4.90
2023-03-03T01:08:23.878Z,6.80
2023-03-03T01:09:23.909Z,4.90
2023-03-03T01:10:23.849Z,5.60
2023-03-03T01:11:23.896Z,5.40
2023-03-03T01:12:23.940Z,5.70
2023-03-03T01:13:24.018Z,5.20
2023-03-03T01:14:23.882Z,4.90
2023-03-03T01:15:23.814Z,5.10
2023-03-03T01:16:23.859Z,5.30
2023-03-03T01:17:23.798Z,5.30
2023-03-03T01:18:23.761Z,5.10
2023-03-03T01:19:23.775Z,5.30
2023-03-03T01:20:23.755Z,5.40
2023-03-03T01:21:23.780Z,5.20
2023-03-03T01:22:23.736Z,5.10
2023-03-03T01:23:23.743Z,6.00
2023-03-03T01:24:23.703Z,6.40
2023-03-03T01:25:23.735Z,5.40
2023-03-03T01:26:23.677Z,5.50
2023-03-03T01:27:23.695Z,7.80
2023-03-03T01:28:23.659Z,6.00
2023-03-03T01:29:23.674Z,6.30
2023-03-03T01:30:23.654Z,6.30
2023-03-03T01:31:23.742Z,6.10
2023-03-03T01:32:23.643Z,6.10
2023-03-03T01:33:23.635Z,6.30
2023-03-03T01:34:23.595Z,5.70
2023-03-03T01:35:23.632Z,5.80
2023-03-03T01:36:23.595Z,5.80
2023-03-03T01:37:23.583Z,5.70
2023-03-03T01:38:23.564Z,6.30
2023-03-03T01:39:23.585Z,5.50
2023-03-03T01:40:23.532Z,5.30
2023-03-03T01:41:23.540Z,6.20
2023-03-03T01:42:23.532Z,5.40
2023-03-03T01:43:23.542Z,4.90
2023-03-03T01:44:23.507Z,5.10
2023-03-03T01:45:23.532Z,5.50
2023-03-03T01:46:23.515Z,6.00
2023-03-03T01:47:23.481Z,4.70
2023-03-03T01:48:23.462Z,5.00
2023-03-03T01:49:23.468Z,5.50
2023-03-03T01:50:23.432Z,4.90
2023-03-03T01:51:23.445Z,5.30
2023-03-03T01:52:23.419Z,5.30
2023-03-03T01:53:23.414Z,4.50
2023-03-03T01:54:23.410Z,4.40
2023-03-03T01:55:23.531Z,4.80
2023-03-03T01:56:23.384Z,5.40
2023-03-03T01:57:23.371Z,4.70
2023-03-03T01:58:23.362Z,5.20
2023-03-03T01:59:23.386Z,4.70
2023-03-03T02:00:23.333Z,5.00
2023-03-03T02:01:23.406Z,4.80
2023-03-03T02:02:23.308Z,5.50
2023-03-03T02:03:23.350Z,6.00
2023-03-03T02:04:23.292Z,4.80
2023-03-03T02:05:23.302Z,4.90
2023-03-03T02:06:23.281Z,5.00
2023-03-03T02:07:23.297Z,5.30
2023-03-03T02:08:23.261Z,4.40
2023-03-03T02:09:23.262Z,6.00
2023-03-03T02:10:23.248Z,5.20
2023-03-03T02:11:23.289Z,4.90
2023-03-03T02:12:23.244Z,5.00
2023-03-03T02:13:23.219Z,4.60
2023-03-03T02:14:23.188Z,5.60
2023-03-03T02:15:23.209Z,5.50
2023-03-03T02:16:23.245Z,5.30
2023-03-03T02:17:23.188Z,5.20
2023-03-03T02:18:23.152Z,5.20
2023-03-03T02:19:23.169Z,5.60
2023-03-03T02:20:23.131Z,5.10
2023-03-03T02:21:23.141Z,5.20
2023-03-03T02:22:23.117Z,5.30
2023-03-03T02:23:23.133Z,5.60
2023-03-03T02:24:23.099Z,5.20
2023-03-03T02:25:23.079Z,5.10
2023-03-03T02:26:23.105Z,5.40
2023-03-03T02:27:23.068Z,5.40
2023-03-03T02:28:23.076Z,5.00
2023-03-03T02:29:23.045Z,4.50
2023-03-03T02:30:23.047Z,5.40
2023-03-03T02:31:23.106Z,4.60
2023-03-03T02:32:23.108Z,5.40
2023-03-03T02:33:23.020Z,5.20
2023-03-03T02:34:23.015Z,5.10
2023-03-03T02:35:23.040Z,5.60
2023-03-03T02:36:22.981Z,5.80
2023-03-03T02:37:22.969Z,4.90
2023-03-03T02:38:22.986Z,5.70
2023-03-03T02:39:22.956Z,5.40
2023-03-03T02:40:22.961Z,6.00
2023-03-03T02:41:22.930Z,6.60
2023-03-03T02:42:22.944Z,5.70
2023-03-03T02:43:22.899Z,5.80
2023-03-03T02:44:22.937Z,5.50
2023-03-03T02:45:23.024Z,5.10
2023-03-03T02:46:22.902Z,5.50
2023-03-03T02:47:22.882Z,5.00
2023-03-03T02:48:22.896Z,5.60
2023-03-03T02:49:22.847Z,5.20
2023-03-03T02:50:22.883Z,4.70
2023-03-03T02:51:22.817Z,5.10
2023-03-03T02:52:22.849Z,5.90
2023-03-03T02:53:22.816Z,5.00
2023-03-03T02:54:22.815Z,4.40
2023-03-03T02:55:22.773Z,5.10
2023-03-03T02:56:22.789Z,4.90
2023-03-03T02:57:22.764Z,4.70
2023-03-03T02:58:22.752Z,5.00
2023-03-03T02:59:22.725Z,4.40
2023-03-03T03:00:22.766Z,5.60
2023-03-03T03:01:22.799Z,4.80
2023-03-03T03:02:22.721Z,5.50
2023-03-03T03:03:22.686Z,5.50
2023-03-03T03:04:22.771Z,5.60
2023-03-03T03:05:22.661Z,5.50
2023-03-03T03:06:22.695Z,5.10
2023-03-03T03:07:22.677Z,5.20
2023-03-03T03:08:22.685Z,4.60
2023-03-03T03:09:22.623Z,5.10
2023-03-03T03:10:22.641Z,5.50
2023-03-03T03:11:22.597Z,5.80
2023-03-03T03:12:22.632Z,5.10
2023-03-03T03:13:22.589Z,5.70
2023-03-03T03:14:22.600Z,5.30
2023-03-03T03:15:22.574Z,5.30
2023-03-03T03:16:22.600Z,5.00
2023-03-03T03:17:22.557Z,4.60
2023-03-03T03:18:22.575Z,4.90
2023-03-03T03:19:22.534Z,4.60
2023-03-03T03:20:22.521Z,5.00
2023-03-03T03:21:22.503Z,5.60
2023-03-03T03:22:22.509Z,5.00
2023-03-03T03:23:22.475Z,5.50
2023-03-03T03:24:22.476Z,4.70
2023-03-03T03:25:22.463Z,5.00
2023-03-03T03:26:22.480Z,4.90
2023-03-03T03:27:22.438Z,4.80
2023-03-03T03:28:22.451Z,4.90
2023-03-03T03:29:22.419Z,4.70
2023-03-03T03:30:22.429Z,5.10
2023-03-03T03:31:22.411Z,5.00
2023-03-03T03:32:22.482Z,5.80
2023-03-03T03:33:22.406Z,5.10
2023-03-03T03:34:22.431Z,4.70
2023-03-03T03:35:22.388Z,6.10
2023-03-03T03:36:22.360Z,4.80
2023-03-03T03:37:22.339Z,5.50
2023-03-03T03:38:22.373Z,4.90
2023-03-03T03:39:22.324Z,4.90
2023-03-03T03:40:22.315Z,4.90
2023-03-03T03:41:22.299Z,5.30
2023-03-03T03:42:22.299Z,5.30
2023-03-03T03:43:22.287Z,4.70
2023-03-03T03:44:22.310Z,5.70
2023-03-03T03:45:22.273Z,6.00
2023-03-03T03:46:22.359Z,4.80
2023-03-03T03:47:22.246Z,5.30
2023-03-03T03:48:22.274Z,5.00
2023-03-03T03:49:22.221Z,5.20
2023-03-03T03:50:22.253Z,5.30
2023-03-03T03:51:22.182Z,4.70
2023-03-03T03:52:22.190Z,4.80
2023-03-03T03:53:22.184Z,4.70
2023-03-03T03:54:22.175Z,5.30
2023-03-03T03:55:22.156Z,5.20
2023-03-03T03:56:22.181Z,5.30
2023-03-03T03:57:22.131Z,4.90
2023-03-03T03:58:22.174Z,4.70
2023-03-03T03:59:22.138Z,5.10
2023-03-03T04:00:22.111Z,4.80
2023-03-03T04:01:22.087Z,5.40
2023-03-03T04:02:22.226Z,5.30
2023-03-03T04:03:22.219Z,5.30
2023-03-03T04:04:22.108Z,5.70
2023-03-03T04:05:22.091Z,4.80
2023-03-03T04:06:22.080Z,5.30
2023-03-03T04:07:22.032Z,5.30
2023-03-03T04:08:22.050Z,5.70
2023-03-03T04:09:22.021Z,5.60
2023-03-03T04:10:22.027Z,5.80
2023-03-03T04:11:21.992Z,6.50
2023-03-03T04:12:22.032Z,5.80
2023-03-03T04:13:21.970Z,6.30
2023-03-03T04:14:21.991Z,6.00
2023-03-03T04:15:21.949Z,6.10
2023-03-03T04:16:21.999Z,5.00
2023-03-03T04:17:20.927Z,5.60
2023-03-03T04:18:21.951Z,6.20
2023-03-03T04:19:21.904Z,4.80
2023-03-03T04:20:21.936Z,5.30
2023-03-03T04:21:21.900Z,5.60
2023-03-03T04:22:21.898Z,6.20
2023-03-03T04:23:21.863Z,6.40
2023-03-03T04:24:21.891Z,6.70
2023-03-03T04:25:21.860Z,6.30
2023-03-03T04:26:21.880Z,6.90
2023-03-03T04:27:21.860Z,7.10
2023-03-03T04:28:21.847Z,6.00
2023-03-03T04:29:21.815Z,5.10
2023-03-03T04:30:21.826Z,4.80
2023-03-03T04:31:21.873Z,5.60
2023-03-03T04:32:22.509Z,5.70
2023-03-03T04:33:21.766Z,5.00
2023-03-03T04:34:21.796Z,5.60
2023-03-03T04:35:21.769Z,4.80
2023-03-03T04:36:21.828Z,4.80
2023-03-03T04:37:21.727Z,4.80
2023-03-03T04:38:21.736Z,5.50
2023-03-03T04:39:21.708Z,5.00
2023-03-03T04:40:21.722Z,5.50
2023-03-03T04:41:21.685Z,5.50
2023-03-03T04:42:21.698Z,4.40
2023-03-03T04:43:21.676Z,4.60
2023-03-03T04:44:21.663Z,5.30
2023-03-03T04:45:21.666Z,5.00
2023-03-03T04:46:21.666Z,4.80
2023-03-03T04:47:21.633Z,4.90
2023-03-03T04:48:21.645Z,4.80
2023-03-03T04:49:21.596Z,5.70
2023-03-03T04:50:21.616Z,5.20
2023-03-03T04:51:21.600Z,5.00
2023-03-03T04:52:21.611Z,5.60
2023-03-03T04:53:21.568Z,4.90
2023-03-03T04:54:21.576Z,5.70
2023-03-03T04:55:21.541Z,5.80
2023-03-03T04:56:21.559Z,5.50
2023-03-03T04:57:21.550Z,5.70
2023-03-03T04:58:21.534Z,6.10
2023-03-03T04:59:21.505Z,6.00
2023-03-03T05:00:21.529Z,5.50
2023-03-03T05:01:21.669Z,5.90
2023-03-03T05:02:21.503Z,5.60
2023-03-03T05:03:21.468Z,5.50
2023-03-03T05:04:21.538Z,5.50
2023-03-03T05:05:21.436Z,6.10
2023-03-03T05:06:21.472Z,6.00
2023-03-03T05:07:21.413Z,5.60
2023-03-03T05:08:21.426Z,6.10
2023-03-03T05:09:21.401Z,5.20
2023-03-03T05:10:21.416Z,4.80
2023-03-03T05:11:21.371Z,5.60
2023-03-03T05:12:21.394Z,5.40
2023-03-03T05:13:21.354Z,6.00
2023-03-03T05:14:21.381Z,5.80
2023-03-03T05:15:21.339Z,5.60
2023-03-03T05:16:21.401Z,5.40
2023-03-03T05:17:21.304Z,5.40
2023-03-03T05:18:21.335Z,5.10
2023-03-03T05:19:21.288Z,6.00
2023-03-03T05:20:21.319Z,5.00
2023-03-03T05:21:21.282Z,6.20
2023-03-03T05:22:21.285Z,5.30
2023-03-03T05:23:21.281Z,5.30
2023-03-03T05:24:21.277Z,5.90
2023-03-03T05:25:21.254Z,6.00
2023-03-03T05:26:21.224Z,6.40
2023-03-03T05:27:21.169Z,5.10
2023-03-03T05:28:21.269Z,5.60
2023-03-03T05:29:21.137Z,5.80
2023-03-03T05:30:21.168Z,6.00
2023-03-03T05:31:21.252Z,5.30
2023-03-03T05:32:21.225Z,6.60
2023-03-03T05:33:21.129Z,5.50
2023-03-03T05:34:21.148Z,6.70
2023-03-03T05:35:21.137Z,6.30
2023-03-03T05:36:21.095Z,5.90
2023-03-03T05:37:21.053Z,5.60
2023-03-03T05:38:21.057Z,5.70
2023-03-03T05:39:21.025Z,6.00
2023-03-03T05:40:21.046Z,5.90
2023-03-03T05:41:21.010Z,5.80
2023-03-03T05:42:21.086Z,6.80
2023-03-03T05:43:20.981Z,5.80
2023-03-03T05:44:20.982Z,5.50
2023-03-03T05:45:20.954Z,6.80
2023-03-03T05:46:20.976Z,6.40
2023-03-03T05:47:20.961Z,5.60
2023-03-03T05:48:20.949Z,6.80
2023-03-03T05:49:20.933Z,5.80
2023-03-03T05:50:20.925Z,5.50
2023-03-03T05:51:20.906Z,5.90
2023-03-03T05:52:20.923Z,5.50
2023-03-03T05:53:20.881Z,5.60
2023-03-03T05:54:20.885Z,5.90
2023-03-03T05:55:20.886Z,5.40
2023-03-03T05:56:20.858Z,5.20
2023-03-03T05:57:20.865Z,5.30
2023-03-03T05:58:20.852Z,5.50
2023-03-03T05:59:20.822Z,6.10
2023-03-03T06:00:20.845Z,5.80
2023-03-03T06:01:20.799Z,7.70
2023-03-03T06:02:20.802Z,6.20
2023-03-03T06:03:20.860Z,6.50
2023-03-03T06:04:20.806Z,6.80
2023-03-03T06:05:20.756Z,5.80
2023-03-03T06:06:20.775Z,6.00
2023-03-03T06:07:20.745Z,6.50
2023-03-03T06:08:20.759Z,5.40
2023-03-03T06:09:20.723Z,6.70
2023-03-03T06:10:20.719Z,5.30
2023-03-03T06:11:20.703Z,6.50
2023-03-03T06:12:20.707Z,6.60
2023-03-03T06:13:20.681Z,6.30
2023-03-03T06:14:20.710Z,7.40
2023-03-03T06:15:20.663Z,7.20
2023-03-03T06:16:20.727Z,6.20
2023-03-03T06:17:20.632Z,6.20
2023-03-03T06:18:20.644Z,5.50
2023-03-03T06:19:20.617Z,6.20
2023-03-03T06:20:20.631Z,5.70
2023-03-03T06:21:20.590Z,6.70
2023-03-03T06:22:20.608Z,7.50
2023-03-03T06:23:20.598Z,6.40
2023-03-03T06:24:20.608Z,6.70
2023-03-03T06:25:20.559Z,7.30
2023-03-03T06:26:20.574Z,7.20
2023-03-03T06:27:20.539Z,7.50
2023-03-03T06:28:20.545Z,6.80
2023-03-03T06:29:20.524Z,6.90
2023-03-03T06:30:20.552Z,7.60
2023-03-03T06:31:20.538Z,7.40
2023-03-03T06:32:20.557Z,7.30
2023-03-03T06:33:20.465Z,7.30
2023-03-03T06:34:20.479Z,7.30
2023-03-03T06:35:20.488Z,6.90
2023-03-03T06:36:20.475Z,7.30
2023-03-03T06:37:20.444Z,7.30
2023-03-03T06:38:20.440Z,7.80
2023-03-03T06:39:20.410Z,8.20
2023-03-03T06:40:20.407Z,7.40
2023-03-03T06:41:20.405Z,8.30
2023-03-03T06:42:20.401Z,6.90
2023-03-03T06:43:20.377Z,8.30
2023-03-03T06:44:20.368Z,9.40
2023-03-03T06:45:20.354Z,7.50
2023-03-03T06:46:20.339Z,8.50
2023-03-03T06:47:20.344Z,9.10
2023-03-03T06:48:20.317Z,9.30
2023-03-03T06:49:20.326Z,9.20
2023-03-03T06:50:20.316Z,9.90
2023-03-03T06:51:20.306Z,10.20
2023-03-03T06:52:20.281Z,9.40
2023-03-03T06:53:20.287Z,10.60
2023-03-03T06:54:20.245Z,10.60
2023-03-03T06:55:20.250Z,9.70
2023-03-03T06:56:20.252Z,10.00
2023-03-03T06:57:20.250Z,10.70
2023-03-03T06:58:20.205Z,10.40
2023-03-03T06:59:20.246Z,10.00
2023-03-03T07:00:20.260Z,10.00
2023-03-03T07:01:20.228Z,8.10
2023-03-03T07:02:20.177Z,8.50
2023-03-03T07:03:20.203Z,7.40
2023-03-03T07:04:20.210Z,7.60
2023-03-03T07:05:20.178Z,7.80
2023-03-03T07:06:20.150Z,7.80
2023-03-03T07:07:20.170Z,8.80
2023-03-03T07:08:20.129Z,7.40
2023-03-03T07:09:20.126Z,7.70
2023-03-03T07:10:20.093Z,8.20
2023-03-03T07:11:20.109Z,8.20
2023-03-03T07:12:20.124Z,7.80
2023-03-03T07:13:20.115Z,7.70
2023-03-03T07:14:20.073Z,7.90
2023-03-03T07:15:20.059Z,7.30
2023-03-03T07:16:20.080Z,7.80
2023-03-03T07:17:20.071Z,8.20
2023-03-03T07:18:20.027Z,8.70
2023-03-03T07:19:20.042Z,9.40
2023-03-03T07:20:19.996Z,11.10
2023-03-03T07:21:20.014Z,9.90
2023-03-03T07:22:19.989Z,9.60
2023-03-03T07:23:20.004Z,9.60
2023-03-03T07:24:19.980Z,8.50
2023-03-03T07:25:19.972Z,8.70
2023-03-03T07:26:19.954Z,8.90
2023-03-03T07:27:19.959Z,7.20
2023-03-03T07:28:19.910Z,7.10
2023-03-03T07:29:19.925Z,6.60
2023-03-03T07:30:19.912Z,7.00
2023-03-03T07:31:20.021Z,7.30
2023-03-03T07:32:19.869Z,7.00
2023-03-03T07:33:19.903Z,7.70
2023-03-03T07:34:19.884Z,7.70
2023-03-03T07:35:19.884Z,7.30
2023-03-03T07:36:19.840Z,7.50
2023-03-03T07:37:19.844Z,7.90
2023-03-03T07:38:19.811Z,8.20
2023-03-03T07:39:19.836Z,7.50
2023-03-03T07:40:19.786Z,7.60
2023-03-03T07:41:19.815Z,7.90
2023-03-03T07:42:19.774Z,7.00
2023-03-03T07:43:19.786Z,7.70
2023-03-03T07:44:19.745Z,8.60
2023-03-03T07:45:19.777Z,8.90
2023-03-03T07:46:19.786Z,9.50
2023-03-03T07:47:19.743Z,8.80
2023-03-03T07:48:19.699Z,7.50
2023-03-03T07:49:19.715Z,9.70
2023-03-03T07:50:19.684Z,8.90
2023-03-03T07:51:19.700Z,7.80
2023-03-03T07:52:19.662Z,8.50
2023-03-03T07:53:19.674Z,8.60
2023-03-03T07:54:19.640Z,8.80
2023-03-03T07:55:19.670Z,7.80
2023-03-03T07:56:19.620Z,8.60
2023-03-03T07:57:19.621Z,8.10
2023-03-03T07:58:19.607Z,7.90
2023-03-03T07:59:19.615Z,9.00
2023-03-03T08:00:19.604Z,7.30
2023-03-03T08:01:19.590Z,7.40
2023-03-03T08:02:19.557Z,8.60
2023-03-03T08:03:19.587Z,7.90
2023-03-03T08:04:19.628Z,7.70
2023-03-03T08:05:19.741Z,7.80
2023-03-03T08:06:19.510Z,8.20
2023-03-03T08:07:19.516Z,8.00
2023-03-03T08:08:19.501Z,9.00
2023-03-03T08:09:19.515Z,8.20
2023-03-03T08:10:19.477Z,8.30
2023-03-03T08:11:19.475Z,8.00
2023-03-03T08:12:19.443Z,8.40
2023-03-03T08:13:19.458Z,8.20
2023-03-03T08:14:19.428Z,7.30
2023-03-03T08:15:19.451Z,8.20
2023-03-03T08:16:19.431Z,8.10
2023-03-03T08:17:19.407Z,9.10
2023-03-03T08:18:19.370Z,9.60
2023-03-03T08:19:19.378Z,8.20
2023-03-03T08:20:19.364Z,8.00
2023-03-03T08:21:19.376Z,7.60
2023-03-03T08:22:19.332Z,7.80
2023-03-03T08:23:19.344Z,8.10
2023-03-03T08:24:19.300Z,7.60
2023-03-03T08:25:19.329Z,8.30
2023-03-03T08:26:19.300Z,7.50
2023-03-03T08:27:19.288Z,7.60
2023-03-03T08:28:19.253Z,8.00
2023-03-03T08:29:19.274Z,8.80
2023-03-03T08:30:19.240Z,8.50
2023-03-03T08:31:31.178Z,8.50
2023-03-03T08:32:19.335Z,8.20
2023-03-03T08:33:19.231Z,8.50
2023-03-03T08:34:19.186Z,7.20
2023-03-03T08:35:19.275Z,8.30
2023-03-03T08:36:19.197Z,8.40
2023-03-03T08:37:19.212Z,8.60
2023-03-03T08:38:19.142Z,9.00
2023-03-03T08:39:19.153Z,7.80
2023-03-03T08:40:19.123Z,7.70
2023-03-03T08:41:19.143Z,7.90
2023-03-03T08:42:19.097Z,9.40
2023-03-03T08:43:19.112Z,8.40
2023-03-03T08:44:19.077Z,8.10
2023-03-03T08:45:19.098Z,8.50
2023-03-03T08:46:19.116Z,8.10
2023-03-03T08:47:19.172Z,7.90
2023-03-03T08:48:19.044Z,8.30
2023-03-03T08:49:19.058Z,7.30
2023-03-03T08:50:19.020Z,8.80
2023-03-03T08:51:19.058Z,8.00
2023-03-03T08:52:19.013Z,7.60
2023-03-03T08:53:19.034Z,7.50
2023-03-03T08:54:18.997Z,7.30
2023-03-03T08:55:18.988Z,7.40
2023-03-03T08:56:18.960Z,7.50
2023-03-03T08:57:18.982Z,8.30
2023-03-03T08:58:18.942Z,7.30
2023-03-03T08:59:18.958Z,8.10
2023-03-03T09:00:18.905Z,8.20
2023-03-03T09:01:18.913Z,8.20
2023-03-03T09:02:18.889Z,8.20
2023-03-03T09:03:18.903Z,8.00
2023-03-03T09:04:18.921Z,7.10
2023-03-03T09:05:18.882Z,7.80
2023-03-03T09:06:18.842Z,8.20
2023-03-03T09:07:18.864Z,8.10
2023-03-03T09:08:18.817Z,7.70
2023-03-03T09:09:18.833Z,7.50
2023-03-03T09:10:18.802Z,8.40
2023-03-03T09:11:18.804Z,8.30
2023-03-03T09:12:18.783Z,8.50
2023-03-03T09:13:18.801Z,7.80
2023-03-03T09:14:18.758Z,7.20
2023-03-03T09:15:18.780Z,8.20
2023-03-03T09:16:18.773Z,7.90
2023-03-03T09:17:18.788Z,7.40
2023-03-03T09:18:18.708Z,8.40
2023-03-03T09:19:18.717Z,8.70
2023-03-03T09:20:18.702Z,7.70
2023-03-03T09:21:18.716Z,7.60
2023-03-03T09:22:18.679Z,8.80
2023-03-03T09:23:18.679Z,7.70
2023-03-03T09:24:18.649Z,8.60
2023-03-03T09:25:18.677Z,7.90
2023-03-03T09:26:18.622Z,7.40
2023-03-03T09:27:18.642Z,7.70
2023-03-03T09:28:18.600Z,7.40
2023-03-03T09:29:18.634Z,7.30
2023-03-03T09:30:18.587Z,8.20
2023-03-03T09:31:18.646Z,7.70
2023-03-03T09:32:18.601Z,7.30
2023-03-03T09:33:18.563Z,7.80
2023-03-03T09:34:18.536Z,7.30
2023-03-03T09:35:18.617Z,7.60
2023-03-03T09:36:18.524Z,7.70
2023-03-03T09:37:18.532Z,7.50
2023-03-03T09:38:18.493Z,7.40
2023-03-03T09:39:18.495Z,7.20
2023-03-03T09:40:18.477Z,7.80
2023-03-03T09:41:18.482Z,7.00
2023-03-03T09:42:18.459Z,7.10
2023-03-03T09:43:19.995Z,7.30
2023-03-03T09:44:18.433Z,7.30
2023-03-03T09:45:18.447Z,8.00
2023-03-03T09:46:18.425Z,7.20
2023-03-03T09:47:19.988Z,7.10
2023-03-03T09:48:18.393Z,6.70
2023-03-03T09:49:18.395Z,7.20
2023-03-03T09:50:18.357Z,7.50
2023-03-03T09:51:18.388Z,6.50
2023-03-03T09:52:18.337Z,6.80
2023-03-03T09:53:18.349Z,7.10
2023-03-03T09:54:18.323Z,6.70
2023-03-03T09:55:18.332Z,7.60
2023-03-03T09:56:18.293Z,7.00
2023-03-03T09:57:18.326Z,7.40
2023-03-03T09:58:18.273Z,6.60
2023-03-03T09:59:18.288Z,7.10
2023-03-03T10:00:18.250Z,7.10
2023-03-03T10:01:18.261Z,6.90
2023-03-03T10:02:18.239Z,7.40
2023-03-03T10:03:18.276Z,7.30
2023-03-03T10:04:18.285Z,6.90
2023-03-03T10:05:18.226Z,7.10
2023-03-03T10:06:18.190Z,7.60
2023-03-03T10:07:18.204Z,6.50
2023-03-03T10:08:18.160Z,7.40
2023-03-03T10:09:18.201Z,7.20
2023-03-03T10:10:18.149Z,6.90
2023-03-03T10:11:18.158Z,7.30
2023-03-03T10:12:18.127Z,6.10
2023-03-03T10:13:18.135Z,6.90
2023-03-03T10:14:18.117Z,7.50
2023-03-03T10:15:18.119Z,7.90
2023-03-03T10:16:18.123Z,6.70
2023-03-03T10:17:18.087Z,6.60
2023-03-03T10:18:18.057Z,7.10
2023-03-03T10:19:18.069Z,7.70
2023-03-03T10:20:18.046Z,7.70
2023-03-03T10:21:18.060Z,6.70
2023-03-03T10:22:18.025Z,6.90
2023-03-03T10:23:18.026Z,7.20
2023-03-03T10:24:17.985Z,6.90
2023-03-03T10:25:17.995Z,6.70
2023-03-03T10:26:17.979Z,6.70
2023-03-03T10:27:17.970Z,6.90
2023-03-03T10:28:17.943Z,6.20
2023-03-03T10:29:22.084Z,6.80
2023-03-03T10:30:24.222Z,6.40
2023-03-03T10:31:19.519Z,7.20
2023-03-03T10:32:18.507Z,7.40
2023-03-03T10:33:18.231Z,6.90
2023-03-03T10:34:17.877Z,7.00
2023-03-03T10:35:18.469Z,7.50
2023-03-03T10:36:17.944Z,7.10
2023-03-03T10:37:17.870Z,7.60
2023-03-03T10:38:17.850Z,7.10
2023-03-03T10:39:17.870Z,7.90
2023-03-03T10:40:17.823Z,6.40
2023-03-03T10:41:17.827Z,7.40
2023-03-03T10:42:17.803Z,7.30
2023-03-03T10:43:29.762Z,7.20
2023-03-03T10:44:17.802Z,6.30
2023-03-03T10:45:17.802Z,7.10
2023-03-03T10:46:17.798Z,6.60
2023-03-03T10:47:17.747Z,6.90
2023-03-03T10:48:17.723Z,6.80
2023-03-03T10:49:17.728Z,7.30
2023-03-03T10:50:17.703Z,7.00
2023-03-03T10:51:17.720Z,7.20
2023-03-03T10:52:17.685Z,6.70
2023-03-03T10:53:17.692Z,21.00
2023-03-03T10:54:17.661Z,7.40
2023-03-03T10:55:17.676Z,6.90
2023-03-03T10:56:17.638Z,7.00
2023-03-03T10:57:17.633Z,6.40
2023-03-03T10:58:17.672Z,6.30
2023-03-03T10:59:17.599Z,7.30
2023-03-03T11:00:17.629Z,6.50
2023-03-03T11:01:17.678Z,5.90
2023-03-03T11:02:17.610Z,6.60
2023-03-03T11:03:17.560Z,7.10
2023-03-03T11:04:17.672Z,6.70
2023-03-03T11:05:17.538Z,7.60
2023-03-03T11:06:17.541Z,6.30
2023-03-03T11:07:17.538Z,6.70
2023-03-03T11:08:17.548Z,6.00
2023-03-03T11:09:17.497Z,6.90
2023-03-03T11:10:17.510Z,7.50
2023-03-03T11:11:17.527Z,6.40
2023-03-03T11:12:17.485Z,6.20
2023-03-03T11:13:17.454Z,6.40
2023-03-03T11:14:17.490Z,6.10
2023-03-03T11:15:17.428Z,6.50
2023-03-03T11:16:17.479Z,5.90
2023-03-03T11:17:17.408Z,6.90
2023-03-03T11:18:17.416Z,5.90
2023-03-03T11:19:17.382Z,6.70
2023-03-03T11:20:17.431Z,6.50
2023-03-03T11:21:17.370Z,6.10
2023-03-03T11:22:17.366Z,6.60
2023-03-03T11:23:17.350Z,6.10
2023-03-03T11:24:17.362Z,6.70
2023-03-03T11:25:17.331Z,6.20
2023-03-03T11:26:17.340Z,6.40
2023-03-03T11:27:17.295Z,5.60
2023-03-03T11:28:17.297Z,6.50
2023-03-03T11:29:17.292Z,6.50
2023-03-03T11:30:17.313Z,7.10
2023-03-03T11:31:17.362Z,7.20
2023-03-03T11:32:17.311Z,6.30
2023-03-03T11:33:17.257Z,5.90
2023-03-03T11:34:17.280Z,6.10
2023-03-03T11:35:17.221Z,6.50
2023-03-03T11:36:17.268Z,6.10
2023-03-03T11:37:17.202Z,6.20
2023-03-03T11:38:17.210Z,6.10
2023-03-03T11:39:17.185Z,7.10
2023-03-03T11:40:17.180Z,5.90
2023-03-03T11:41:17.150Z,6.00
2023-03-03T11:42:17.232Z,6.30
2023-03-03T11:43:30.058Z,6.10
2023-03-03T11:44:17.156Z,6.10
2023-03-03T11:45:17.106Z,6.10
2023-03-03T11:46:17.186Z,6.50
2023-03-03T11:47:17.091Z,6.80
2023-03-03T11:48:17.106Z,7.10
2023-03-03T11:49:17.061Z,5.80
2023-03-03T11:50:17.120Z,5.70
2023-03-03T11:51:17.093Z,6.20
2023-03-03T11:52:17.044Z,6.10
2023-03-03T11:53:17.026Z,6.30
2023-03-03T11:54:17.049Z,6.30
2023-03-03T11:55:16.993Z,6.10
2023-03-03T11:56:17.001Z,6.00
2023-03-03T11:57:16.987Z,6.50
2023-03-03T11:58:16.980Z,6.20
2023-03-03T11:59:16.968Z,6.00
2023-03-03T12:00:17.024Z,5.80
2023-03-03T12:01:16.926Z,6.30
2023-03-03T12:02:16.965Z,5.90
2023-03-03T12:03:16.924Z,5.70
2023-03-03T12:04:16.908Z,6.00
2023-03-03T12:05:16.891Z,6.00
2023-03-03T12:06:16.956Z,5.90
2023-03-03T12:07:19.313Z,6.10
2023-03-03T12:08:16.951Z,5.80
2023-03-03T12:09:16.894Z,5.80
2023-03-03T12:10:16.961Z,5.90
2023-03-03T12:11:16.820Z,6.10
2023-03-03T12:12:16.854Z,6.80
2023-03-03T12:13:16.798Z,6.10
2023-03-03T12:14:16.810Z,6.00
2023-03-03T12:15:16.780Z,6.60
2023-03-03T12:16:16.800Z,6.00
2023-03-03T12:17:16.762Z,5.60
2023-03-03T12:18:16.758Z,5.00
2023-03-03T12:19:16.757Z,5.90
2023-03-03T12:20:16.819Z,6.00
2023-03-03T12:21:16.724Z,5.70
2023-03-03T12:22:16.732Z,6.00
2023-03-03T12:23:16.693Z,5.40
2023-03-03T12:24:16.694Z,7.00
2023-03-03T12:25:16.678Z,6.10
2023-03-03T12:26:16.679Z,5.80
2023-03-03T12:27:16.650Z,5.90
2023-03-03T12:28:16.663Z,5.50
2023-03-03T12:29:16.640Z,6.10
2023-03-03T12:30:16.680Z,5.80
2023-03-03T12:31:16.627Z,5.50
2023-03-03T12:32:16.705Z,5.70
2023-03-03T12:33:16.607Z,6.00
2023-03-03T12:34:16.607Z,5.80
2023-03-03T12:35:16.576Z,5.50
2023-03-03T12:36:16.573Z,5.90
2023-03-03T12:37:16.535Z,6.00
2023-03-03T12:38:16.582Z,5.80
2023-03-03T12:39:28.864Z,5.90
2023-03-03T12:40:16.540Z,5.70
2023-03-03T12:41:16.500Z,6.10
2023-03-03T12:42:16.492Z,6.30
2023-03-03T12:43:16.489Z,5.50
2023-03-03T12:44:16.495Z,6.40
2023-03-03T12:45:16.463Z,5.40
2023-03-03T12:46:16.490Z,5.80
2023-03-03T12:47:16.424Z,5.50
2023-03-03T12:48:16.434Z,5.80
2023-03-03T12:49:16.409Z,5.90
2023-03-03T12:50:16.421Z,5.30
2023-03-03T12:51:16.424Z,5.60
2023-03-03T12:52:16.393Z,5.70
2023-03-03T12:53:16.365Z,6.20
2023-03-03T12:54:16.367Z,6.30
2023-03-03T12:55:16.349Z,5.90
2023-03-03T12:56:16.350Z,5.70
2023-03-03T12:57:16.323Z,5.60
2023-03-03T12:58:16.330Z,6.30
2023-03-03T12:59:18.155Z,6.10
2023-03-03T13:00:16.324Z,5.80
2023-03-03T13:01:16.285Z,5.40
2023-03-03T13:02:16.281Z,5.60
2023-03-03T13:03:16.283Z,5.80
2023-03-03T13:04:16.275Z,5.60
2023-03-03T13:05:16.238Z,5.50
2023-03-03T13:06:16.225Z,5.80
2023-03-03T13:07:16.202Z,6.30
2023-03-03T13:08:16.248Z,5.60
2023-03-03T13:09:16.181Z,6.30
2023-03-03T13:10:16.227Z,5.80
2023-03-03T13:11:16.156Z,5.90
2023-03-03T13:12:16.162Z,6.20
2023-03-03T13:13:16.141Z,5.40
2023-03-03T13:14:16.170Z,5.90
2023-03-03T13:15:16.233Z,6.40
2023-03-03T13:16:17.378Z,5.80
2023-03-03T13:17:16.168Z,5.30
2023-03-03T13:18:16.104Z,6.00